sensor_id;sensor_type;location;lat;lon;timestamp;pressure;altitude;pressure_sealevel;temperature
12875;BMP180;6505;51.114;13.128;2022-09-02T00:01:17;100053.00;;;20.80
12875;BMP180;6505;51.114;13.128;2022-09-02T00:03:46;100057.00;;;20.80
12875;BMP180;6505;51.114;13.128;2022-09-02T00:06:16;100050.00;;;20.80
12875;BMP180;6505;51.114;13.128;2022-09-02T00:08:45;100044.00;;;20.80
12875;BMP180;6505;51.114;13.128;2022-09-02T00:11:18;100041.00;;;20.70
12875;BMP180;6505;51.114;13.128;2022-09-02T00:13:48;100029.00;;;20.70
12875;BMP180;6505;51.114;13.128;2022-09-02T00:16:17;100040.00;;;20.70
12875;BMP180;6505;51.114;13.128;2022-09-02T00:18:46;100040.00;;;20.70
12875;BMP180;6505;51.114;13.128;2022-09-02T00:21:20;100038.00;;;20.60
12875;BMP180;6505;51.114;13.128;2022-09-02T00:23:49;100034.00;;;20.70
12875;BMP180;6505;51.114;13.128;2022-09-02T00:26:17;100032.00;;;20.60
12875;BMP180;6505;51.114;13.128;2022-09-02T00:28:46;100036.00;;;20.60
12875;BMP180;6505;51.114;13.128;2022-09-02T00:31:23;100037.00;;;20.60
12875;BMP180;6505;51.114;13.128;2022-09-02T00:33:51;100035.00;;;20.60
12875;BMP180;6505;51.114;13.128;2022-09-02T00:36:21;100041.00;;;20.50
12875;BMP180;6505;51.114;13.128;2022-09-02T00:38:49;100031.00;;;20.50
12875;BMP180;6505;51.114;13.128;2022-09-02T00:41:21;100025.00;;;20.50
12875;BMP180;6505;51.114;13.128;2022-09-02T00:43:52;100023.00;;;20.50
12875;BMP180;6505;51.114;13.128;2022-09-02T00:46:25;100024.00;;;20.50
12875;BMP180;6505;51.114;13.128;2022-09-02T00:49:00;100027.00;;;20.40
12875;BMP180;6505;51.114;13.128;2022-09-02T00:51:36;100030.00;;;20.40
12875;BMP180;6505;51.114;13.128;2022-09-02T00:54:07;100029.00;;;20.40
12875;BMP180;6505;51.114;13.128;2022-09-02T00:56:39;100022.00;;;20.40
12875;BMP180;6505;51.114;13.128;2022-09-02T00:59:12;100027.00;;;20.30
12875;BMP180;6505;51.114;13.128;2022-09-02T01:01:41;100030.00;;;20.30
12875;BMP180;6505;51.114;13.128;2022-09-02T01:04:11;100029.00;;;20.30
12875;BMP180;6505;51.114;13.128;2022-09-02T01:06:41;100020.00;;;20.30
12875;BMP180;6505;51.114;13.128;2022-09-02T01:09:14;100024.00;;;20.30
12875;BMP180;6505;51.114;13.128;2022-09-02T01:11:47;100022.00;;;20.30
12875;BMP180;6505;51.114;13.128;2022-09-02T01:14:21;100024.00;;;20.30
12875;BMP180;6505;51.114;13.128;2022-09-02T01:16:58;100018.00;;;20.20
12875;BMP180;6505;51.114;13.128;2022-09-02T01:19:32;100013.00;;;20.20
12875;BMP180;6505;51.114;13.128;2022-09-02T01:22:14;100013.00;;;20.10
12875;BMP180;6505;51.114;13.128;2022-09-02T01:24:42;100018.00;;;20.20
12875;BMP180;6505;51.114;13.128;2022-09-02T01:27:15;100016.00;;;20.10
12875;BMP180;6505;51.114;13.128;2022-09-02T01:29:44;100016.00;;;20.10
12875;BMP180;6505;51.114;13.128;2022-09-02T01:32:12;100015.00;;;20.10
12875;BMP180;6505;51.114;13.128;2022-09-02T01:34:40;100013.00;;;20.10
12875;BMP180;6505;51.114;13.128;2022-09-02T01:37:10;100023.00;;;20.10
12875;BMP180;6505;51.114;13.128;2022-09-02T01:39:39;100015.00;;;20.10
12875;BMP180;6505;51.114;13.128;2022-09-02T01:42:07;100015.00;;;20.10
12875;BMP180;6505;51.114;13.128;2022-09-02T01:44:36;100021.00;;;20.00
12875;BMP180;6505;51.114;13.128;2022-09-02T01:47:10;100016.00;;;19.90
12875;BMP180;6505;51.114;13.128;2022-09-02T01:49:38;100014.00;;;20.00
12875;BMP180;6505;51.114;13.128;2022-09-02T01:52:07;100021.00;;;20.00
12875;BMP180;6505;51.114;13.128;2022-09-02T01:54:38;100006.00;;;20.00
12875;BMP180;6505;51.114;13.128;2022-09-02T01:57:07;100005.00;;;19.90
12875;BMP180;6505;51.114;13.128;2022-09-02T01:59:36;100003.00;;;19.90
12875;BMP180;6505;51.114;13.128;2022-09-02T02:02:05;99999.00;;;19.90
12875;BMP180;6505;51.114;13.128;2022-09-02T02:04:33;100005.00;;;19.90
12875;BMP180;6505;51.114;13.128;2022-09-02T02:07:04;99993.00;;;19.90
12875;BMP180;6505;51.114;13.128;2022-09-02T02:09:33;100002.00;;;19.90
12875;BMP180;6505;51.114;13.128;2022-09-02T02:12:04;99988.00;;;19.80
12875;BMP180;6505;51.114;13.128;2022-09-02T02:14:33;99996.00;;;19.80
12875;BMP180;6505;51.114;13.128;2022-09-02T02:17:02;99994.00;;;19.80
12875;BMP180;6505;51.114;13.128;2022-09-02T02:19:30;99992.00;;;19.80
12875;BMP180;6505;51.114;13.128;2022-09-02T02:21:59;99996.00;;;19.80
12875;BMP180;6505;51.114;13.128;2022-09-02T02:24:27;99998.00;;;19.70
12875;BMP180;6505;51.114;13.128;2022-09-02T02:26:54;99994.00;;;19.70
12875;BMP180;6505;51.114;13.128;2022-09-02T02:29:24;99996.00;;;19.70
12875;BMP180;6505;51.114;13.128;2022-09-02T02:31:52;99990.00;;;19.70
12875;BMP180;6505;51.114;13.128;2022-09-02T02:34:21;99997.00;;;19.70
12875;BMP180;6505;51.114;13.128;2022-09-02T02:36:49;99997.00;;;19.70
12875;BMP180;6505;51.114;13.128;2022-09-02T02:39:18;99989.00;;;19.60
12875;BMP180;6505;51.114;13.128;2022-09-02T02:41:46;99996.00;;;19.60
12875;BMP180;6505;51.114;13.128;2022-09-02T02:44:15;99995.00;;;19.60
12875;BMP180;6505;51.114;13.128;2022-09-02T02:46:44;99996.00;;;19.60
12875;BMP180;6505;51.114;13.128;2022-09-02T02:49:12;99992.00;;;19.60
12875;BMP180;6505;51.114;13.128;2022-09-02T02:51:41;99991.00;;;19.60
12875;BMP180;6505;51.114;13.128;2022-09-02T02:54:09;99985.00;;;19.50
12875;BMP180;6505;51.114;13.128;2022-09-02T02:56:40;99990.00;;;19.50
12875;BMP180;6505;51.114;13.128;2022-09-02T02:59:08;99992.00;;;19.50
12875;BMP180;6505;51.114;13.128;2022-09-02T03:01:36;99987.00;;;19.50
12875;BMP180;6505;51.114;13.128;2022-09-02T03:04:06;99986.00;;;19.40
12875;BMP180;6505;51.114;13.128;2022-09-02T03:06:34;99985.00;;;19.40
12875;BMP180;6505;51.114;13.128;2022-09-02T03:09:04;99993.00;;;19.40
12875;BMP180;6505;51.114;13.128;2022-09-02T03:11:34;99985.00;;;19.40
12875;BMP180;6505;51.114;13.128;2022-09-02T03:14:02;99981.00;;;19.40
12875;BMP180;6505;51.114;13.128;2022-09-02T03:16:33;99989.00;;;19.40
12875;BMP180;6505;51.114;13.128;2022-09-02T03:19:02;99987.00;;;19.40
12875;BMP180;6505;51.114;13.128;2022-09-02T03:21:32;99992.00;;;19.30
12875;BMP180;6505;51.114;13.128;2022-09-02T03:24:06;99985.00;;;19.30
12875;BMP180;6505;51.114;13.128;2022-09-02T03:26:34;99986.00;;;19.30
12875;BMP180;6505;51.114;13.128;2022-09-02T03:29:03;99993.00;;;19.30
12875;BMP180;6505;51.114;13.128;2022-09-02T03:31:32;99992.00;;;19.30
12875;BMP180;6505;51.114;13.128;2022-09-02T03:34:01;99988.00;;;19.30
12875;BMP180;6505;51.114;13.128;2022-09-02T03:36:34;99947.00;;;19.20
12875;BMP180;6505;51.114;13.128;2022-09-02T03:39:04;99978.00;;;19.20
12875;BMP180;6505;51.114;13.128;2022-09-02T03:41:37;99979.00;;;19.20
12875;BMP180;6505;51.114;13.128;2022-09-02T03:44:08;99980.00;;;19.20
12875;BMP180;6505;51.114;13.128;2022-09-02T03:46:38;99988.00;;;19.20
12875;BMP180;6505;51.114;13.128;2022-09-02T03:49:06;99985.00;;;19.10
12875;BMP180;6505;51.114;13.128;2022-09-02T03:51:40;99980.00;;;19.10
12875;BMP180;6505;51.114;13.128;2022-09-02T03:54:09;99975.00;;;19.10
12875;BMP180;6505;51.114;13.128;2022-09-02T03:56:39;99979.00;;;19.10
12875;BMP180;6505;51.114;13.128;2022-09-02T03:59:08;99976.00;;;19.10
12875;BMP180;6505;51.114;13.128;2022-09-02T04:01:36;99976.00;;;19.10
12875;BMP180;6505;51.114;13.128;2022-09-02T04:04:05;99972.00;;;19.10
12875;BMP180;6505;51.114;13.128;2022-09-02T04:06:34;99979.00;;;19.00
12875;BMP180;6505;51.114;13.128;2022-09-02T04:09:05;99972.00;;;19.00
12875;BMP180;6505;51.114;13.128;2022-09-02T04:11:34;99969.00;;;19.00
12875;BMP180;6505;51.114;13.128;2022-09-02T04:14:03;99970.00;;;19.00
12875;BMP180;6505;51.114;13.128;2022-09-02T04:16:32;99970.00;;;19.00
12875;BMP180;6505;51.114;13.128;2022-09-02T04:19:05;99976.00;;;19.00
12875;BMP180;6505;51.114;13.128;2022-09-02T04:21:40;99977.00;;;18.90
12875;BMP180;6505;51.114;13.128;2022-09-02T04:24:11;99971.00;;;18.90
12875;BMP180;6505;51.114;13.128;2022-09-02T04:26:43;99978.00;;;18.90
12875;BMP180;6505;51.114;13.128;2022-09-02T04:29:15;99957.00;;;18.80
12875;BMP180;6505;51.114;13.128;2022-09-02T04:31:47;99972.00;;;18.90
12875;BMP180;6505;51.114;13.128;2022-09-02T04:34:15;99972.00;;;18.90
12875;BMP180;6505;51.114;13.128;2022-09-02T04:36:43;99973.00;;;18.80
12875;BMP180;6505;51.114;13.128;2022-09-02T04:39:13;99940.00;;;18.80
12875;BMP180;6505;51.114;13.128;2022-09-02T04:41:41;99978.00;;;18.80
12875;BMP180;6505;51.114;13.128;2022-09-02T04:44:11;99947.00;;;18.80
12875;BMP180;6505;51.114;13.128;2022-09-02T04:46:42;99974.00;;;18.80
12875;BMP180;6505;51.114;13.128;2022-09-02T04:49:15;99976.00;;;18.80
12875;BMP180;6505;51.114;13.128;2022-09-02T04:51:44;99982.00;;;18.80
12875;BMP180;6505;51.114;13.128;2022-09-02T04:54:14;99979.00;;;18.80
12875;BMP180;6505;51.114;13.128;2022-09-02T04:56:46;99988.00;;;18.80
12875;BMP180;6505;51.114;13.128;2022-09-02T04:59:14;99983.00;;;18.80
12875;BMP180;6505;51.114;13.128;2022-09-02T05:01:50;99963.00;;;18.80
12875;BMP180;6505;51.114;13.128;2022-09-02T05:04:24;99980.00;;;18.80
12875;BMP180;6505;51.114;13.128;2022-09-02T05:06:53;99986.00;;;18.80
12875;BMP180;6505;51.114;13.128;2022-09-02T05:09:23;99977.00;;;18.80
12875;BMP180;6505;51.114;13.128;2022-09-02T05:11:55;99986.00;;;18.80
12875;BMP180;6505;51.114;13.128;2022-09-02T05:14:28;99984.00;;;18.80
12875;BMP180;6505;51.114;13.128;2022-09-02T05:16:59;99984.00;;;18.80
12875;BMP180;6505;51.114;13.128;2022-09-02T05:19:35;99983.00;;;18.80
12875;BMP180;6505;51.114;13.128;2022-09-02T05:22:03;99986.00;;;18.80
12875;BMP180;6505;51.114;13.128;2022-09-02T05:24:37;99978.00;;;18.80
12875;BMP180;6505;51.114;13.128;2022-09-02T05:27:08;99990.00;;;18.80
12875;BMP180;6505;51.114;13.128;2022-09-02T05:30:25;99985.00;;;18.70
12875;BMP180;6505;51.114;13.128;2022-09-02T05:33:43;99983.00;;;18.70
12875;BMP180;6505;51.114;13.128;2022-09-02T05:36:20;99974.00;;;18.70
12875;BMP180;6505;51.114;13.128;2022-09-02T05:38:49;99980.00;;;18.70
12875;BMP180;6505;51.114;13.128;2022-09-02T05:41:22;99982.00;;;18.70
12875;BMP180;6505;51.114;13.128;2022-09-02T05:43:58;99977.00;;;18.80
12875;BMP180;6505;51.114;13.128;2022-09-02T05:46:31;99976.00;;;18.80
12875;BMP180;6505;51.114;13.128;2022-09-02T05:49:00;99977.00;;;18.80
12875;BMP180;6505;51.114;13.128;2022-09-02T05:51:57;99968.00;;;18.80
12875;BMP180;6505;51.114;13.128;2022-09-02T05:54:38;99970.00;;;18.80
12875;BMP180;6505;51.114;13.128;2022-09-02T05:57:14;99972.00;;;18.80
12875;BMP180;6505;51.114;13.128;2022-09-02T05:59:51;99977.00;;;18.90
12875;BMP180;6505;51.114;13.128;2022-09-02T06:02:26;99971.00;;;18.90
12875;BMP180;6505;51.114;13.128;2022-09-02T06:04:55;99973.00;;;18.90
12875;BMP180;6505;51.114;13.128;2022-09-02T06:07:24;99942.00;;;18.90
12875;BMP180;6505;51.114;13.128;2022-09-02T06:09:55;99970.00;;;19.00
12875;BMP180;6505;51.114;13.128;2022-09-02T06:12:26;99972.00;;;19.00
12875;BMP180;6505;51.114;13.128;2022-09-02T06:14:57;99967.00;;;19.00
12875;BMP180;6505;51.114;13.128;2022-09-02T06:17:26;99972.00;;;19.10
12875;BMP180;6505;51.114;13.128;2022-09-02T06:19:55;99971.00;;;19.10
12875;BMP180;6505;51.114;13.128;2022-09-02T06:22:26;99968.00;;;19.10
12875;BMP180;6505;51.114;13.128;2022-09-02T06:24:55;99968.00;;;19.20
12875;BMP180;6505;51.114;13.128;2022-09-02T06:27:26;99965.00;;;19.20
12875;BMP180;6505;51.114;13.128;2022-09-02T06:29:55;99973.00;;;19.20
12875;BMP180;6505;51.114;13.128;2022-09-02T06:32:24;99978.00;;;19.30
12875;BMP180;6505;51.114;13.128;2022-09-02T06:34:58;99969.00;;;19.30
12875;BMP180;6505;51.114;13.128;2022-09-02T06:37:30;99967.00;;;19.30
12875;BMP180;6505;51.114;13.128;2022-09-02T06:39:58;99976.00;;;19.40
12875;BMP180;6505;51.114;13.128;2022-09-02T06:42:29;99976.00;;;19.40
12875;BMP180;6505;51.114;13.128;2022-09-02T06:45:09;99965.00;;;19.40
12875;BMP180;6505;51.114;13.128;2022-09-02T06:47:38;99971.00;;;19.50
12875;BMP180;6505;51.114;13.128;2022-09-02T06:50:08;99971.00;;;19.40
12875;BMP180;6505;51.114;13.128;2022-09-02T06:52:37;99970.00;;;19.50
12875;BMP180;6505;51.114;13.128;2022-09-02T06:55:07;99968.00;;;19.60
12875;BMP180;6505;51.114;13.128;2022-09-02T06:57:38;99961.00;;;19.60
12875;BMP180;6505;51.114;13.128;2022-09-02T07:00:11;99969.00;;;19.70
12875;BMP180;6505;51.114;13.128;2022-09-02T07:02:41;99969.00;;;19.70
12875;BMP180;6505;51.114;13.128;2022-09-02T07:05:09;99968.00;;;19.70
12875;BMP180;6505;51.114;13.128;2022-09-02T07:07:40;99973.00;;;19.80
12875;BMP180;6505;51.114;13.128;2022-09-02T07:10:13;99966.00;;;19.80
12875;BMP180;6505;51.114;13.128;2022-09-02T07:12:47;99971.00;;;19.90
12875;BMP180;6505;51.114;13.128;2022-09-02T07:15:17;99963.00;;;19.90
12875;BMP180;6505;51.114;13.128;2022-09-02T07:17:44;99976.00;;;20.00
12875;BMP180;6505;51.114;13.128;2022-09-02T07:20:21;99973.00;;;20.00
12875;BMP180;6505;51.114;13.128;2022-09-02T07:22:53;99972.00;;;20.10
12875;BMP180;6505;51.114;13.128;2022-09-02T07:25:24;99981.00;;;20.10
12875;BMP180;6505;51.114;13.128;2022-09-02T07:27:54;99973.00;;;20.20
12875;BMP180;6505;51.114;13.128;2022-09-02T07:30:23;99976.00;;;20.30
12875;BMP180;6505;51.114;13.128;2022-09-02T07:32:57;99975.00;;;20.30
12875;BMP180;6505;51.114;13.128;2022-09-02T07:35:27;99969.00;;;20.40
12875;BMP180;6505;51.114;13.128;2022-09-02T07:37:57;99975.00;;;20.40
12875;BMP180;6505;51.114;13.128;2022-09-02T07:40:25;99972.00;;;20.50
12875;BMP180;6505;51.114;13.128;2022-09-02T07:42:55;99969.00;;;20.60
12875;BMP180;6505;51.114;13.128;2022-09-02T07:45:28;99968.00;;;20.70
12875;BMP180;6505;51.114;13.128;2022-09-02T07:47:58;99962.00;;;20.80
12875;BMP180;6505;51.114;13.128;2022-09-02T07:50:27;99967.00;;;21.00
12875;BMP180;6505;51.114;13.128;2022-09-02T07:52:57;99966.00;;;21.10
12875;BMP180;6505;51.114;13.128;2022-09-02T07:55:29;99964.00;;;21.30
12875;BMP180;6505;51.114;13.128;2022-09-02T07:58:00;99965.00;;;21.50
12875;BMP180;6505;51.114;13.128;2022-09-02T08:00:29;99967.00;;;21.80
12875;BMP180;6505;51.114;13.128;2022-09-02T08:03:04;99967.00;;;22.00
12875;BMP180;6505;51.114;13.128;2022-09-02T08:05:43;99963.00;;;22.30
12875;BMP180;6505;51.114;13.128;2022-09-02T08:08:15;99963.00;;;22.60
12875;BMP180;6505;51.114;13.128;2022-09-02T08:10:46;99974.00;;;22.90
12875;BMP180;6505;51.114;13.128;2022-09-02T08:13:17;99959.00;;;23.20
12875;BMP180;6505;51.114;13.128;2022-09-02T08:15:45;99962.00;;;23.40
12875;BMP180;6505;51.114;13.128;2022-09-02T08:18:17;99955.00;;;23.70
12875;BMP180;6505;51.114;13.128;2022-09-02T08:20:48;99968.00;;;24.00
12875;BMP180;6505;51.114;13.128;2022-09-02T08:23:16;99961.00;;;24.30
12875;BMP180;6505;51.114;13.128;2022-09-02T08:26:03;99960.00;;;24.50
12875;BMP180;6505;51.114;13.128;2022-09-02T08:28:33;99957.00;;;24.80
12875;BMP180;6505;51.114;13.128;2022-09-02T08:31:05;99962.00;;;24.90
12875;BMP180;6505;51.114;13.128;2022-09-02T08:33:34;99962.00;;;25.10
12875;BMP180;6505;51.114;13.128;2022-09-02T08:36:04;99953.00;;;25.20
12875;BMP180;6505;51.114;13.128;2022-09-02T08:38:34;99963.00;;;25.60
12875;BMP180;6505;51.114;13.128;2022-09-02T08:41:13;99958.00;;;25.70
12875;BMP180;6505;51.114;13.128;2022-09-02T08:43:47;99970.00;;;25.90
12875;BMP180;6505;51.114;13.128;2022-09-02T08:46:17;99959.00;;;26.10
12875;BMP180;6505;51.114;13.128;2022-09-02T08:48:51;99958.00;;;26.20
12875;BMP180;6505;51.114;13.128;2022-09-02T08:51:30;99958.00;;;26.40
12875;BMP180;6505;51.114;13.128;2022-09-02T08:54:07;99955.00;;;26.50
12875;BMP180;6505;51.114;13.128;2022-09-02T08:56:37;99955.00;;;26.60
12875;BMP180;6505;51.114;13.128;2022-09-02T08:59:08;99950.00;;;26.60
12875;BMP180;6505;51.114;13.128;2022-09-02T09:01:47;99955.00;;;26.50
12875;BMP180;6505;51.114;13.128;2022-09-02T09:04:36;99962.00;;;26.50
12875;BMP180;6505;51.114;13.128;2022-09-02T09:07:20;99936.00;;;26.40
12875;BMP180;6505;51.114;13.128;2022-09-02T09:10:07;99915.00;;;26.30
12875;BMP180;6505;51.114;13.128;2022-09-02T09:13:00;99938.00;;;26.20
12875;BMP180;6505;51.114;13.128;2022-09-02T09:15:39;99936.00;;;26.10
12875;BMP180;6505;51.114;13.128;2022-09-02T09:18:15;99941.00;;;26.10
12875;BMP180;6505;51.114;13.128;2022-09-02T09:20:44;99941.00;;;26.00
12875;BMP180;6505;51.114;13.128;2022-09-02T09:23:26;99946.00;;;25.90
12875;BMP180;6505;51.114;13.128;2022-09-02T09:26:06;99943.00;;;25.80
12875;BMP180;6505;51.114;13.128;2022-09-02T09:28:39;99904.00;;;25.70
12875;BMP180;6505;51.114;13.128;2022-09-02T09:31:17;99937.00;;;25.60
12875;BMP180;6505;51.114;13.128;2022-09-02T09:34:00;99943.00;;;25.40
12875;BMP180;6505;51.114;13.128;2022-09-02T09:36:50;99941.00;;;25.30
12875;BMP180;6505;51.114;13.128;2022-09-02T09:39:23;99943.00;;;25.30
12875;BMP180;6505;51.114;13.128;2022-09-02T09:41:54;99936.00;;;25.20
12875;BMP180;6505;51.114;13.128;2022-09-02T09:44:42;99932.00;;;25.10
12875;BMP180;6505;51.114;13.128;2022-09-02T09:47:19;99941.00;;;25.00
12875;BMP180;6505;51.114;13.128;2022-09-02T09:49:51;99944.00;;;25.00
12875;BMP180;6505;51.114;13.128;2022-09-02T09:52:24;99930.00;;;24.90
12875;BMP180;6505;51.114;13.128;2022-09-02T09:55:14;99929.00;;;24.80
12875;BMP180;6505;51.114;13.128;2022-09-02T09:57:51;99902.00;;;24.80
12875;BMP180;6505;51.114;13.128;2022-09-02T10:00:26;99924.00;;;24.70
12875;BMP180;6505;51.114;13.128;2022-09-02T10:02:59;99919.00;;;24.70
12875;BMP180;6505;51.114;13.128;2022-09-02T10:05:33;99942.00;;;24.60
12875;BMP180;6505;51.114;13.128;2022-09-02T10:08:05;99910.00;;;24.60
12875;BMP180;6505;51.114;13.128;2022-09-02T10:10:56;99926.00;;;24.50
12875;BMP180;6505;51.114;13.128;2022-09-02T10:13:28;99910.00;;;24.50
12875;BMP180;6505;51.114;13.128;2022-09-02T10:16:17;99925.00;;;24.40
12875;BMP180;6505;51.114;13.128;2022-09-02T10:18:55;99912.00;;;24.40
12875;BMP180;6505;51.114;13.128;2022-09-02T10:21:50;99916.00;;;24.30
12875;BMP180;6505;51.114;13.128;2022-09-02T10:24:40;99902.00;;;24.30
12875;BMP180;6505;51.114;13.128;2022-09-02T10:27:15;99913.00;;;24.30
12875;BMP180;6505;51.114;13.128;2022-09-02T10:29:58;99918.00;;;24.30
12875;BMP180;6505;51.114;13.128;2022-09-02T10:32:43;99906.00;;;24.30
12875;BMP180;6505;51.114;13.128;2022-09-02T10:35:24;99906.00;;;24.20
12875;BMP180;6505;51.114;13.128;2022-09-02T10:38:11;99907.00;;;24.20
12875;BMP180;6505;51.114;13.128;2022-09-02T10:40:43;99906.00;;;24.20
12875;BMP180;6505;51.114;13.128;2022-09-02T10:43:27;99901.00;;;24.20
12875;BMP180;6505;51.114;13.128;2022-09-02T10:46:04;99899.00;;;24.20
12875;BMP180;6505;51.114;13.128;2022-09-02T10:48:55;99901.00;;;24.20
12875;BMP180;6505;51.114;13.128;2022-09-02T10:51:37;99901.00;;;24.20
12875;BMP180;6505;51.114;13.128;2022-09-02T10:54:26;99903.00;;;24.20
12875;BMP180;6505;51.114;13.128;2022-09-02T10:57:04;99903.00;;;24.20
12875;BMP180;6505;51.114;13.128;2022-09-02T10:59:41;99897.00;;;24.20
12875;BMP180;6505;51.114;13.128;2022-09-02T11:02:16;99896.00;;;24.20
12875;BMP180;6505;51.114;13.128;2022-09-02T11:04:50;99897.00;;;24.20
12875;BMP180;6505;51.114;13.128;2022-09-02T11:07:29;99883.00;;;24.20
12875;BMP180;6505;51.114;13.128;2022-09-02T11:10:08;99893.00;;;24.20
12875;BMP180;6505;51.114;13.128;2022-09-02T11:12:45;99885.00;;;24.20
12875;BMP180;6505;51.114;13.128;2022-09-02T11:15:18;99883.00;;;24.30
12875;BMP180;6505;51.114;13.128;2022-09-02T11:17:59;99895.00;;;24.20
12875;BMP180;6505;51.114;13.128;2022-09-02T11:20:35;99891.00;;;24.30
12875;BMP180;6505;51.114;13.128;2022-09-02T11:23:22;99875.00;;;24.30
12875;BMP180;6505;51.114;13.128;2022-09-02T11:25:56;99875.00;;;24.30
12875;BMP180;6505;51.114;13.128;2022-09-02T11:28:35;99873.00;;;24.30
12875;BMP180;6505;51.114;13.128;2022-09-02T11:31:11;99874.00;;;24.30
12875;BMP180;6505;51.114;13.128;2022-09-02T11:33:53;99875.00;;;24.30
12875;BMP180;6505;51.114;13.128;2022-09-02T11:36:24;99872.00;;;24.40
12875;BMP180;6505;51.114;13.128;2022-09-02T11:39:04;99868.00;;;24.40
12875;BMP180;6505;51.114;13.128;2022-09-02T11:42:01;99878.00;;;24.40
12875;BMP180;6505;51.114;13.128;2022-09-02T11:45:02;99874.00;;;24.40
12875;BMP180;6505;51.114;13.128;2022-09-02T11:48:09;99875.00;;;24.40
12875;BMP180;6505;51.114;13.128;2022-09-02T11:53:52;99868.00;;;24.50
12875;BMP180;6505;51.114;13.128;2022-09-02T11:56:29;99876.00;;;24.40
12875;BMP180;6505;51.114;13.128;2022-09-02T11:58:57;99875.00;;;24.50
12875;BMP180;6505;51.114;13.128;2022-09-02T12:01:29;99871.00;;;24.50
12875;BMP180;6505;51.114;13.128;2022-09-02T12:04:03;99867.00;;;24.50
12875;BMP180;6505;51.114;13.128;2022-09-02T12:07:23;99869.00;;;24.50
12875;BMP180;6505;51.114;13.128;2022-09-02T12:09:56;99872.00;;;24.50
12875;BMP180;6505;51.114;13.128;2022-09-02T12:13:05;99834.00;;;24.40
12875;BMP180;6505;51.114;13.128;2022-09-02T12:15:36;99865.00;;;24.50
12875;BMP180;6505;51.114;13.128;2022-09-02T12:18:27;99867.00;;;24.50
12875;BMP180;6505;51.114;13.128;2022-09-02T12:21:08;99854.00;;;24.50
12875;BMP180;6505;51.114;13.128;2022-09-02T12:24:19;99868.00;;;24.40
12875;BMP180;6505;51.114;13.128;2022-09-02T12:27:21;99848.00;;;24.40
12875;BMP180;6505;51.114;13.128;2022-09-02T12:29:52;99850.00;;;24.50
12875;BMP180;6505;51.114;13.128;2022-09-02T12:33:02;99848.00;;;24.40
12875;BMP180;6505;51.114;13.128;2022-09-02T12:35:52;99854.00;;;24.40
12875;BMP180;6505;51.114;13.128;2022-09-02T12:38:33;99849.00;;;24.40
12875;BMP180;6505;51.114;13.128;2022-09-02T12:41:31;99842.00;;;24.40
12875;BMP180;6505;51.114;13.128;2022-09-02T12:44:22;99836.00;;;24.40
12875;BMP180;6505;51.114;13.128;2022-09-02T12:47:04;99833.00;;;24.50
12875;BMP180;6505;51.114;13.128;2022-09-02T12:49:42;99824.00;;;24.50
12875;BMP180;6505;51.114;13.128;2022-09-02T12:52:42;99832.00;;;24.50
12875;BMP180;6505;51.114;13.128;2022-09-02T12:55:19;99821.00;;;24.50
12875;BMP180;6505;51.114;13.128;2022-09-02T12:57:52;99825.00;;;24.40
12875;BMP180;6505;51.114;13.128;2022-09-02T13:00:30;99829.00;;;24.50
12875;BMP180;6505;51.114;13.128;2022-09-02T13:03:23;99829.00;;;24.50
12875;BMP180;6505;51.114;13.128;2022-09-02T13:06:04;99819.00;;;24.50
12875;BMP180;6505;51.114;13.128;2022-09-02T13:12:40;99826.00;;;24.50
12875;BMP180;6505;51.114;13.128;2022-09-02T13:15:29;99820.00;;;24.50
12875;BMP180;6505;51.114;13.128;2022-09-02T13:18:42;99808.00;;;24.50
12875;BMP180;6505;51.114;13.128;2022-09-02T13:21:49;99810.00;;;24.50
12875;BMP180;6505;51.114;13.128;2022-09-02T13:24:49;99808.00;;;24.50
12875;BMP180;6505;51.114;13.128;2022-09-02T13:28:01;99805.00;;;24.50
12875;BMP180;6505;51.114;13.128;2022-09-02T13:30:56;99795.00;;;24.50
12875;BMP180;6505;51.114;13.128;2022-09-02T13:33:28;99799.00;;;24.50
12875;BMP180;6505;51.114;13.128;2022-09-02T13:35:57;99791.00;;;24.60
12875;BMP180;6505;51.114;13.128;2022-09-02T13:38:28;99791.00;;;24.60
12875;BMP180;6505;51.114;13.128;2022-09-02T13:40:59;99789.00;;;24.60
12875;BMP180;6505;51.114;13.128;2022-09-02T13:43:28;99802.00;;;24.60
12875;BMP180;6505;51.114;13.128;2022-09-02T13:46:00;99796.00;;;24.60
12875;BMP180;6505;51.114;13.128;2022-09-02T13:48:31;99801.00;;;24.60
12875;BMP180;6505;51.114;13.128;2022-09-02T13:51:10;99797.00;;;24.60
12875;BMP180;6505;51.114;13.128;2022-09-02T13:53:42;99803.00;;;24.70
12875;BMP180;6505;51.114;13.128;2022-09-02T13:56:33;99791.00;;;24.70
12875;BMP180;6505;51.114;13.128;2022-09-02T13:59:01;99796.00;;;24.70
12875;BMP180;6505;51.114;13.128;2022-09-02T14:01:32;99784.00;;;24.60
12875;BMP180;6505;51.114;13.128;2022-09-02T14:04:05;99783.00;;;24.70
12875;BMP180;6505;51.114;13.128;2022-09-02T14:06:41;99775.00;;;24.60
12875;BMP180;6505;51.114;13.128;2022-09-02T14:09:19;99781.00;;;24.60
12875;BMP180;6505;51.114;13.128;2022-09-02T14:11:51;99776.00;;;24.70
12875;BMP180;6505;51.114;13.128;2022-09-02T14:14:23;99763.00;;;24.70
12875;BMP180;6505;51.114;13.128;2022-09-02T14:17:18;99758.00;;;24.60
12875;BMP180;6505;51.114;13.128;2022-09-02T14:19:47;99772.00;;;24.70
12875;BMP180;6505;51.114;13.128;2022-09-02T14:22:26;99757.00;;;24.60
12875;BMP180;6505;51.114;13.128;2022-09-02T14:24:55;99765.00;;;24.70
12875;BMP180;6505;51.114;13.128;2022-09-02T14:27:25;99766.00;;;24.60
12875;BMP180;6505;51.114;13.128;2022-09-02T14:29:56;99765.00;;;24.50
12875;BMP180;6505;51.114;13.128;2022-09-02T14:32:26;99757.00;;;24.60
12875;BMP180;6505;51.114;13.128;2022-09-02T14:35:20;99759.00;;;24.60
12875;BMP180;6505;51.114;13.128;2022-09-02T14:37:51;99760.00;;;24.60
12875;BMP180;6505;51.114;13.128;2022-09-02T14:40:33;99761.00;;;24.60
12875;BMP180;6505;51.114;13.128;2022-09-02T14:43:10;99751.00;;;24.60
12875;BMP180;6505;51.114;13.128;2022-09-02T14:45:45;99752.00;;;24.60
12875;BMP180;6505;51.114;13.128;2022-09-02T14:48:21;99751.00;;;24.60
12875;BMP180;6505;51.114;13.128;2022-09-02T14:50:58;99762.00;;;24.60
12875;BMP180;6505;51.114;13.128;2022-09-02T14:53:29;99747.00;;;24.60
12875;BMP180;6505;51.114;13.128;2022-09-02T14:55:58;99752.00;;;24.60
12875;BMP180;6505;51.114;13.128;2022-09-02T14:58:27;99754.00;;;24.60